createdAt,value
2023-04-20T00:02:09.145Z,4.47
2023-04-20T00:04:36.640Z,3.00
2023-04-20T00:07:03.324Z,2.65
2023-04-20T00:09:29.831Z,3.92
2023-04-20T00:11:56.423Z,4.38
2023-04-20T00:14:22.892Z,2.35
2023-04-20T00:16:49.489Z,4.30
2023-04-20T00:19:16.272Z,2.83
2023-04-20T00:21:43.219Z,2.33
2023-04-20T00:24:09.833Z,4.95
2023-04-20T00:26:36.259Z,3.20
2023-04-20T00:29:02.711Z,5.13
2023-04-20T00:31:29.207Z,7.18
2023-04-20T00:33:55.941Z,4.85
2023-04-20T00:36:22.546Z,3.60
2023-04-20T00:38:48.966Z,3.08
2023-04-20T00:41:15.549Z,2.92
2023-04-20T00:43:54.652Z,4.75
2023-04-20T00:46:21.992Z,3.65
2023-04-20T00:48:51.993Z,3.60
2023-04-20T00:51:19.507Z,4.15
2023-04-20T00:53:46.407Z,6.72
2023-04-20T00:56:14.466Z,4.97
2023-04-20T00:58:44.135Z,7.65
2023-04-20T01:01:12.322Z,3.50
2023-04-20T01:03:40.079Z,5.50
2023-04-20T01:06:07.974Z,4.53
2023-04-20T01:08:34.433Z,4.63
2023-04-20T01:11:01.003Z,4.00
2023-04-20T01:13:27.433Z,3.05
2023-04-20T01:15:54.168Z,3.05
2023-04-20T01:18:20.680Z,3.05
2023-04-20T01:20:47.933Z,4.13
2023-04-20T01:23:14.420Z,7.93
2023-04-20T01:25:41.629Z,6.82
2023-04-20T01:28:09.364Z,3.85
2023-04-20T01:30:37.853Z,2.42
2023-04-20T01:33:04.530Z,4.72
2023-04-20T01:35:31.043Z,3.40
2023-04-20T01:37:57.483Z,4.03
2023-04-20T01:40:24.003Z,3.97
2023-04-20T01:42:50.593Z,3.42
2023-04-20T01:45:17.154Z,2.70
2023-04-20T01:47:43.633Z,6.07
2023-04-20T01:50:10.446Z,3.25
2023-04-20T01:52:36.967Z,5.28
2023-04-20T01:55:03.596Z,4.65
2023-04-20T01:57:30.208Z,4.13
2023-04-20T01:59:56.688Z,8.07
2023-04-20T02:02:23.266Z,4.40
2023-04-20T02:04:49.770Z,3.83
2023-04-20T02:07:16.691Z,4.57
2023-04-20T02:09:43.135Z,5.30
2023-04-20T02:12:09.613Z,2.95
2023-04-20T02:14:36.043Z,5.47
2023-04-20T02:17:04.579Z,4.10
2023-04-20T02:19:43.458Z,3.58
2023-04-20T02:22:11.261Z,3.72
2023-04-20T02:24:37.743Z,3.63
2023-04-20T02:27:07.288Z,4.50
2023-04-20T02:29:35.555Z,3.63
2023-04-20T02:32:07.430Z,3.17
2023-04-20T02:34:33.990Z,4.20
2023-04-20T02:37:00.440Z,4.15
2023-04-20T02:39:26.895Z,3.67
2023-04-20T02:41:53.302Z,5.65
2023-04-20T02:44:19.798Z,4.50
2023-04-20T02:46:46.360Z,4.30
2023-04-20T02:49:12.863Z,4.97
2023-04-20T02:51:39.325Z,3.63
2023-04-20T02:54:06.236Z,5.38
2023-04-20T02:56:32.686Z,3.53
2023-04-20T02:58:59.129Z,4.47
2023-04-20T03:01:25.657Z,4.32
2023-04-20T03:03:52.469Z,4.07
2023-04-20T03:06:19.289Z,3.53
2023-04-20T03:08:46.089Z,4.00
2023-04-20T03:11:12.543Z,4.60
2023-04-20T03:13:39.034Z,6.00
2023-04-20T03:16:06.103Z,4.47
2023-04-20T03:18:32.744Z,4.95
2023-04-20T03:20:59.330Z,4.32
2023-04-20T03:23:25.773Z,4.28
2023-04-20T03:25:52.275Z,8.43
2023-04-20T03:28:18.740Z,3.95
2023-04-20T03:30:45.316Z,4.80
2023-04-20T03:33:11.875Z,4.55
2023-04-20T03:35:39.493Z,4.82
2023-04-20T03:38:06.519Z,5.75
2023-04-20T03:40:33.046Z,4.55
2023-04-20T03:42:59.444Z,4.20
2023-04-20T03:45:25.932Z,4.50
2023-04-20T03:47:55.834Z,5.97
2023-04-20T03:50:22.359Z,4.30
2023-04-20T03:52:48.827Z,3.63
2023-04-20T03:55:15.348Z,4.68
2023-04-20T04:00:55.660Z,3.58
2023-04-20T04:03:20.715Z,3.42
2023-04-20T04:05:47.240Z,4.47
2023-04-20T04:08:13.710Z,5.28
2023-04-20T04:10:40.130Z,5.40
2023-04-20T04:13:06.662Z,6.45
2023-04-20T04:15:33.179Z,5.28
2023-04-20T04:18:01.248Z,5.32
2023-04-20T04:20:27.944Z,7.13
2023-04-20T04:22:54.607Z,3.70
2023-04-20T04:25:23.290Z,5.55
2023-04-20T04:27:51.253Z,3.63
2023-04-20T04:30:18.008Z,4.95
2023-04-20T04:32:44.842Z,6.05
2023-04-20T04:35:11.798Z,6.32
2023-04-20T04:37:38.299Z,4.57
2023-04-20T04:40:09.139Z,4.85
2023-04-20T04:42:36.605Z,3.80
2023-04-20T04:45:04.815Z,5.28
2023-04-20T04:47:35.451Z,7.03
2023-04-20T04:50:03.802Z,5.85
2023-04-20T04:52:31.087Z,5.50
2023-04-20T04:54:57.512Z,6.32
2023-04-20T04:57:24.143Z,5.82
2023-04-20T04:59:50.750Z,4.28
2023-04-20T05:02:17.340Z,5.15
2023-04-20T05:04:44.049Z,4.45
2023-04-20T05:07:10.879Z,5.38
2023-04-20T05:09:37.604Z,6.10
2023-04-20T05:12:04.158Z,6.45
2023-04-20T05:14:32.027Z,4.63
2023-04-20T05:16:59.106Z,5.03
2023-04-20T05:19:25.913Z,6.22
2023-04-20T05:21:52.317Z,6.53
2023-04-20T05:24:19.498Z,3.63
2023-04-20T05:26:46.523Z,4.47
2023-04-20T05:29:13.138Z,6.00
2023-04-20T05:31:39.692Z,5.47
2023-04-20T05:34:06.354Z,5.63
2023-04-20T05:36:33.657Z,7.57
2023-04-20T05:39:00.420Z,4.50
2023-04-20T05:41:27.288Z,6.65
2023-04-20T05:43:54.907Z,4.53
2023-04-20T05:46:21.911Z,6.15
2023-04-20T05:48:48.522Z,5.63
2023-04-20T05:51:15.419Z,5.95
2023-04-20T05:53:43.134Z,6.32
2023-04-20T05:56:09.568Z,7.18
2023-04-20T05:58:37.565Z,6.18
2023-04-20T06:01:04.875Z,5.18
2023-04-20T06:03:31.632Z,5.07
2023-04-20T06:05:58.372Z,4.40
2023-04-20T06:08:24.967Z,9.13
2023-04-20T06:11:00.492Z,3.50
2023-04-20T06:13:27.052Z,5.65
2023-04-20T06:15:54.150Z,7.43
2023-04-20T06:18:20.987Z,5.28
2023-04-20T06:20:47.398Z,5.20
2023-04-20T06:23:13.941Z,6.07
2023-04-20T06:25:40.922Z,4.32
2023-04-20T06:28:07.705Z,5.63
2023-04-20T06:30:34.743Z,7.68
2023-04-20T06:33:01.868Z,5.55
2023-04-20T06:35:28.870Z,6.45
2023-04-20T06:37:57.472Z,4.22
2023-04-20T06:40:27.087Z,8.43
2023-04-20T06:42:54.314Z,8.13
2023-04-20T06:45:21.174Z,6.60
2023-04-20T06:47:47.662Z,7.32
2023-04-20T06:50:14.250Z,7.15
2023-04-20T06:52:41.250Z,5.88
2023-04-20T06:55:08.392Z,5.20
2023-04-20T06:57:35.362Z,5.80
2023-04-20T07:00:01.824Z,4.88
2023-04-20T07:02:28.353Z,5.25
2023-04-20T07:05:01.742Z,4.88
2023-04-20T07:07:28.251Z,5.15
2023-04-20T07:09:54.670Z,6.10
2023-04-20T07:12:21.110Z,5.65
2023-04-20T07:14:47.582Z,5.72
2023-04-20T07:17:56.744Z,6.18
2023-04-20T07:20:19.845Z,5.97
2023-04-20T07:22:47.317Z,6.60
2023-04-20T07:25:13.978Z,5.50
2023-04-20T07:27:41.442Z,5.85
2023-04-20T07:30:10.719Z,6.60
2023-04-20T07:32:39.211Z,5.55
2023-04-20T07:35:06.172Z,6.72
2023-04-20T07:37:35.973Z,6.05
2023-04-20T07:40:06.470Z,7.20
2023-04-20T07:42:34.555Z,5.28
2023-04-20T07:45:01.579Z,4.03
2023-04-20T07:47:28.139Z,6.10
2023-04-20T07:49:54.912Z,4.93
2023-04-20T07:52:21.476Z,4.90
2023-04-20T07:55:15.146Z,5.18
2023-04-20T07:57:42.565Z,7.78
2023-04-20T08:00:10.182Z,6.00
2023-04-20T08:02:52.111Z,3.97
2023-04-20T08:05:27.965Z,4.97
2023-04-20T08:07:55.992Z,6.43
2023-04-20T08:10:52.908Z,6.40
2023-04-20T08:13:52.927Z,5.35
2023-04-20T08:16:19.804Z,4.35
2023-04-20T08:19:30.303Z,5.32
2023-04-20T08:21:56.931Z,5.38
2023-04-20T08:24:32.414Z,6.78
2023-04-20T08:27:27.133Z,7.93
2023-04-20T08:29:53.823Z,5.43
2023-04-20T08:32:52.295Z,5.55
2023-04-20T08:35:18.885Z,5.45
2023-04-20T08:37:46.312Z,6.25
2023-04-20T08:40:13.010Z,5.20
2023-04-20T08:42:40.601Z,6.82
2023-04-20T08:46:03.508Z,6.28
2023-04-20T08:48:35.408Z,5.43
2023-04-20T08:51:07.036Z,6.05
2023-04-20T08:53:33.982Z,6.40
2023-04-20T08:56:00.637Z,6.03
2023-04-20T09:01:55.852Z,5.82
2023-04-20T09:04:24.865Z,6.97
2023-04-20T09:08:37.816Z,5.10
2023-04-20T09:10:44.309Z,4.43
2023-04-20T09:13:24.048Z,6.35
2023-04-20T09:15:50.715Z,6.72
2023-04-20T09:18:22.386Z,5.45
2023-04-20T09:20:49.105Z,7.68
2023-04-20T09:23:21.803Z,7.90
2023-04-20T09:25:54.278Z,9.02
2023-04-20T09:28:24.521Z,5.93
2023-04-20T09:31:06.213Z,4.75
2023-04-20T09:33:35.274Z,6.82
2023-04-20T09:36:27.694Z,6.80
2023-04-20T09:39:07.561Z,7.82
2023-04-20T09:41:35.680Z,9.68
2023-04-20T09:47:52.102Z,8.77
2023-04-20T09:53:05.176Z,5.93
2023-04-20T09:55:54.896Z,6.55
2023-04-20T09:58:22.579Z,7.93
2023-04-20T10:00:51.576Z,6.00
2023-04-20T10:03:22.189Z,6.10
2023-04-20T10:05:50.646Z,4.97
2023-04-20T10:08:18.317Z,5.07
2023-04-20T10:10:47.618Z,6.10
2023-04-20T10:13:14.744Z,4.65
2023-04-20T10:18:24.802Z,5.90
2023-04-20T10:21:03.798Z,4.57
2023-04-20T10:23:30.614Z,5.90
2023-04-20T10:25:58.997Z,8.38
2023-04-20T10:28:26.258Z,6.57
2023-04-20T10:30:53.726Z,6.05
2023-04-20T10:33:20.847Z,5.50
2023-04-20T10:35:58.956Z,5.25
2023-04-20T10:38:32.182Z,4.55
2023-04-20T10:41:13.093Z,4.63
2023-04-20T10:43:43.193Z,4.97
2023-04-20T10:46:34.823Z,6.15
2023-04-20T10:49:02.416Z,6.45
2023-04-20T10:51:29.466Z,5.97
2023-04-20T10:54:02.104Z,5.65
2023-04-20T10:56:36.925Z,5.60
2023-04-20T10:59:11.287Z,5.77
2023-04-20T11:01:38.345Z,6.97
2023-04-20T11:04:05.268Z,7.28
2023-04-20T11:06:32.370Z,5.80
2023-04-20T11:08:58.820Z,6.18
2023-04-20T11:11:30.116Z,7.00
2023-04-20T11:14:10.346Z,6.03
2023-04-20T11:16:49.793Z,5.60
2023-04-20T11:19:29.435Z,6.03
2023-04-20T11:22:06.687Z,5.90
2023-04-20T11:24:34.975Z,5.93
2023-04-20T11:27:05.050Z,6.93
2023-04-20T11:29:40.065Z,6.15
2023-04-20T11:33:36.094Z,8.00
2023-04-20T11:38:16.876Z,5.70
2023-04-20T11:40:03.419Z,7.53
2023-04-20T11:42:36.622Z,5.97
2023-04-20T11:45:06.690Z,6.30
2023-04-20T11:47:46.630Z,5.68
2023-04-20T11:50:19.484Z,7.07
2023-04-20T11:52:45.984Z,4.93
2023-04-20T11:55:12.740Z,6.80
2023-04-20T11:57:39.503Z,6.10
2023-04-20T12:00:07.229Z,6.28
2023-04-20T12:02:41.686Z,7.75
2023-04-20T12:05:09.186Z,7.63
2023-04-20T12:07:38.725Z,7.15
2023-04-20T12:10:23.576Z,6.97
2023-04-20T12:12:50.286Z,7.47
2023-04-20T12:15:17.144Z,6.18
2023-04-20T12:18:16.352Z,6.22
2023-04-20T12:20:42.936Z,6.45
2023-04-20T12:23:12.472Z,5.70
2023-04-20T12:25:54.714Z,5.72
2023-04-20T12:29:09.102Z,6.38
2023-04-20T12:31:36.493Z,5.78
2023-04-20T12:34:03.216Z,5.13
2023-04-20T12:36:29.984Z,5.03
2023-04-20T12:38:56.946Z,7.72
2023-04-20T12:41:23.574Z,4.82
2023-04-20T12:43:51.963Z,6.03
2023-04-20T12:46:18.667Z,5.03
2023-04-20T12:48:48.033Z,6.60
2023-04-20T12:51:15.370Z,6.82
2023-04-20T12:53:41.912Z,4.85
2023-04-20T12:56:08.489Z,5.32
2023-04-20T12:58:35.150Z,5.63
2023-04-20T13:01:34.805Z,6.40
2023-04-20T13:03:52.580Z,5.80
2023-04-20T13:06:19.846Z,4.57
2023-04-20T13:15:38.179Z,5.57
2023-04-20T13:18:56.712Z,7.00
2023-04-20T13:21:38.444Z,6.40
2023-04-20T13:24:46.448Z,5.47
2023-04-20T13:27:14.090Z,6.50
2023-04-20T13:29:41.423Z,6.10
2023-04-20T13:45:13.270Z,6.90
2023-04-20T13:47:45.807Z,4.90
2023-04-20T13:50:21.847Z,5.55
2023-04-20T13:52:49.321Z,5.10
2023-04-20T13:55:18.114Z,6.80
2023-04-20T13:58:20.504Z,5.55
2023-04-20T14:01:17.717Z,5.18
2023-04-20T14:03:47.446Z,5.25
2023-04-20T14:07:20.666Z,5.33
2023-04-20T14:27:07.601Z,5.38
2023-04-20T14:29:46.162Z,6.05
2023-04-20T14:32:16.693Z,5.05
2023-04-20T14:35:19.806Z,4.35
2023-04-20T14:37:52.586Z,4.75
2023-04-20T14:40:20.641Z,4.88
2023-04-20T14:42:47.742Z,5.07
2023-04-20T14:45:14.454Z,5.10
2023-04-20T14:48:34.135Z,4.93
2023-04-20T14:53:33.188Z,5.45
2023-04-20T14:55:59.798Z,4.72
2023-04-20T14:59:10.920Z,4.70
2023-04-20T15:02:02.201Z,4.20
2023-04-20T15:04:30.331Z,4.10
2023-04-20T15:07:10.752Z,5.93
2023-04-20T15:09:40.469Z,4.60
2023-04-20T15:12:07.226Z,5.07
2023-04-20T15:14:36.349Z,5.15
2023-04-20T15:17:10.816Z,4.60
2023-04-20T15:19:37.773Z,4.65
2023-04-20T15:22:18.926Z,5.07
2023-04-20T15:24:51.541Z,5.75
2023-04-20T15:27:42.633Z,4.95
2023-04-20T15:30:10.190Z,4.30
2023-04-20T15:32:44.533Z,4.53
2023-04-20T15:35:11.383Z,4.15
2023-04-20T15:37:39.948Z,4.70
2023-04-20T15:40:23.666Z,4.15
2023-04-20T15:43:04.334Z,4.57
2023-04-20T15:45:31.288Z,4.72
2023-04-20T15:47:58.783Z,5.05
2023-04-20T15:50:31.450Z,4.78
2023-04-20T15:53:00.991Z,4.72
2023-04-20T15:55:27.939Z,4.50
2023-04-20T16:00:28.666Z,5.20
2023-04-20T16:02:55.625Z,5.45
2023-04-20T16:05:23.221Z,5.13
2023-04-20T16:07:49.793Z,6.18
2023-04-20T16:10:16.427Z,9.25
2023-04-20T16:12:42.873Z,5.10
2023-04-20T16:15:11.754Z,6.18
2023-04-20T16:17:38.377Z,5.22
2023-04-20T16:20:11.393Z,7.75
2023-04-20T16:27:16.015Z,5.88
2023-04-20T16:29:16.124Z,6.13
2023-04-20T16:31:42.886Z,6.80
2023-04-20T16:34:09.419Z,6.95
2023-04-20T16:36:53.008Z,5.80
2023-04-20T16:39:19.985Z,8.10
2023-04-20T16:57:02.213Z,6.47
2023-04-20T17:37:09.778Z,6.70
2023-04-20T17:44:14.469Z,9.15
2023-04-20T18:31:37.769Z,12.23
2023-04-20T18:34:05.261Z,13.70
2023-04-20T18:36:38.355Z,14.90
2023-04-20T18:39:09.940Z,10.80
2023-04-20T18:41:40.140Z,11.23
2023-04-20T18:44:11.806Z,12.23
2023-04-20T18:46:41.175Z,11.88
2023-04-20T18:49:18.126Z,12.57
2023-04-20T18:54:32.398Z,10.43
2023-04-20T18:57:14.509Z,12.27
2023-04-20T18:59:50.497Z,9.98
2023-04-20T19:02:36.228Z,9.30
2023-04-20T19:05:11.643Z,10.98
2023-04-20T19:07:49.794Z,11.25
2023-04-20T19:10:19.924Z,11.13
2023-04-20T19:24:24.241Z,11.20
2023-04-20T19:26:51.784Z,11.80
2023-04-20T19:42:13.886Z,11.25
2023-04-20T19:48:17.739Z,13.13
2023-04-20T19:50:49.137Z,10.68
2023-04-20T19:53:45.212Z,11.52
2023-04-20T19:56:15.627Z,10.85
2023-04-20T19:58:57.741Z,10.40
2023-04-20T20:01:28.861Z,11.65
2023-04-20T20:03:59.586Z,12.35
2023-04-20T20:06:52.522Z,13.13
2023-04-20T20:09:28.350Z,14.25
2023-04-20T20:15:10.898Z,14.73
2023-04-20T20:18:01.359Z,16.83
2023-04-20T20:23:41.025Z,15.48
2023-04-20T20:26:17.791Z,18.48
2023-04-20T20:28:54.366Z,19.17
2023-04-20T20:31:32.589Z,18.73
2023-04-20T20:35:14.379Z,18.30
2023-04-20T20:41:22.621Z,17.55
2023-04-20T20:44:43.975Z,17.50
2023-04-20T20:47:37.108Z,17.98
2023-04-20T20:50:41.542Z,17.77
2023-04-20T20:53:47.734Z,14.77
2023-04-20T20:56:22.204Z,19.55
2023-04-20T21:02:15.155Z,20.02
2023-04-20T21:08:29.326Z,18.25
2023-04-20T21:11:14.720Z,20.27
2023-04-20T21:13:45.314Z,20.40
2023-04-20T21:29:15.622Z,19.05
2023-04-20T21:31:57.744Z,18.48
2023-04-20T21:34:31.192Z,17.73
2023-04-20T21:40:10.795Z,21.45
2023-04-20T21:43:06.992Z,15.32
2023-04-20T21:46:34.888Z,19.92
2023-04-20T21:49:06.130Z,17.45
2023-04-20T21:54:57.456Z,16.33
2023-04-20T21:57:36.875Z,17.50
2023-04-20T22:00:28.467Z,16.67
2023-04-20T22:03:08.994Z,16.38
2023-04-20T22:06:15.634Z,16.50
2023-04-20T22:08:59.741Z,16.77
2023-04-20T22:17:59.374Z,20.10
2023-04-20T22:20:47.809Z,17.75
2023-04-20T22:26:19.979Z,18.00
2023-04-20T22:29:19.062Z,17.05
2023-04-20T22:32:01.683Z,15.35
2023-04-20T22:34:45.813Z,19.05
2023-04-20T22:37:22.864Z,17.05
2023-04-20T22:40:07.950Z,14.88
2023-04-20T22:46:00.317Z,16.15
2023-04-20T22:48:33.207Z,16.92
2023-04-20T22:51:25.693Z,14.15
2023-04-20T22:53:59.978Z,16.27
2023-04-20T22:56:40.752Z,21.33
2023-04-20T22:59:21.350Z,17.45
2023-04-20T23:01:55.470Z,19.35
2023-04-20T23:10:35.408Z,18.73
2023-04-20T23:11:53.374Z,18.67
2023-04-20T23:15:57.614Z,15.20
2023-04-20T23:18:51.842Z,15.98
2023-04-20T23:21:26.376Z,14.80
2023-04-20T23:24:14.204Z,14.35
2023-04-20T23:26:54.616Z,15.40
2023-04-20T23:29:46.404Z,13.80
2023-04-20T23:32:18.855Z,18.08
2023-04-20T23:37:48.712Z,17.55
2023-04-20T23:40:22.379Z,16.08
2023-04-20T23:43:09.416Z,17.13
2023-04-20T23:45:40.702Z,20.02
2023-04-20T23:48:36.770Z,16.13
2023-04-20T23:51:31.037Z,15.90
2023-04-20T23:54:13.366Z,14.15
2023-04-20T23:57:01.056Z,18.45
